Time;durP1;ratioP1;P1;durP2;ratioP2;P2;SDS_P1;SDS_P2;PMS_P1;PMS_P2;Temp;Humidity;BMP_temperature;BMP_pressure;BME280_temperature;BME280_humidity;BME280_pressure;Samples;Min_cycle;Max_cycle;Signal;HPM_P1;HPM_P2
2021/12/24 00:00:00;;;;;;;15.20;5.43;;;;;;;;;;5014930;28;20046;-75
2021/12/24 00:02:26;;;;;;;23.38;6.93;;;;;;;;;;5019946;28;20050;-72
2021/12/24 00:04:52;;;;;;;19.73;7.90;;;;;;;;;;5007029;28;20033;-72
2021/12/24 00:07:18;;;;;;;20.92;7.82;;;;;;;;;;5007130;28;20069;-72
2021/12/24 00:09:45;;;;;;;18.67;7.47;;;;;;;;;;5007067;28;20030;-72
2021/12/24 00:12:16;;;;;;;27.88;8.73;;;;;;;;;;5007068;28;20062;-72
2021/12/24 00:14:48;;;;;;;34.90;12.32;;;;;;;;;;5006807;28;20500;-72
2021/12/24 00:17:16;;;;;;;33.65;13.60;;;;;;;;;;5006842;28;20023;-73
2021/12/24 00:19:56;;;;;;;34.58;14.18;;;;;;;;;;5007222;28;20030;-72
2021/12/24 00:35:58;;;;;;;16.17;9.93;;;;;;;;;;5006911;28;20037;-71
2021/12/24 00:38:24;;;;;;;12.82;8.05;;;;;;;;;;5006687;28;20027;-73
2021/12/24 00:40:50;;;;;;;14.02;7.15;;;;;;;;;;5006444;28;20454;-72
2021/12/24 00:43:16;;;;;;;16.20;6.22;;;;;;;;;;5006574;28;20030;-72
2021/12/24 00:45:46;;;;;;;11.35;6.32;;;;;;;;;;5005949;28;20057;-71
2021/12/24 00:48:14;;;;;;;13.13;5.20;;;;;;;;;;5006216;28;20029;-72
2021/12/24 00:51:32;;;;;;;12.43;5.18;;;;;;;;;;5006414;28;20029;-72
2021/12/24 00:55:58;;;;;;;16.42;6.07;;;;;;;;;;5006278;28;20038;-71
2021/12/24 00:58:24;;;;;;;17.55;9.35;;;;;;;;;;5006011;28;20054;-71
2021/12/24 01:00:51;;;;;;;18.52;9.43;;;;;;;;;;5005789;28;20359;-72
2021/12/24 01:03:17;;;;;;;17.73;7.13;;;;;;;;;;5006547;28;20086;-73
2021/12/24 01:05:43;;;;;;;20.95;8.32;;;;;;;;;;5006256;28;20034;-72
2021/12/24 01:08:10;;;;;;;11.57;5.78;;;;;;;;;;5006264;28;20054;-71
2021/12/24 01:10:38;;;;;;;12.30;6.07;;;;;;;;;;5006196;28;20039;-73
2021/12/24 01:13:04;;;;;;;13.35;5.47;;;;;;;;;;5006415;28;20065;-72
2021/12/24 01:15:33;;;;;;;14.52;6.35;;;;;;;;;;5005354;28;20077;-72
2021/12/24 01:18:28;;;;;;;17.30;8.07;;;;;;;;;;5006481;28;20022;-76
2021/12/24 01:21:00;;;;;;;21.08;9.90;;;;;;;;;;5006374;28;20481;-71
2021/12/24 01:23:40;;;;;;;15.52;7.10;;;;;;;;;;5006337;28;20065;-73
2021/12/24 01:26:14;;;;;;;14.00;7.20;;;;;;;;;;5014089;28;20026;-76
2021/12/24 01:29:02;;;;;;;15.70;6.40;;;;;;;;;;5024742;28;20109;-73
2021/12/24 01:45:00;;;;;;;18.83;4.88;;;;;;;;;;4986080;28;20054;-72
2021/12/24 01:47:26;;;;;;;13.85;5.28;;;;;;;;;;4987542;28;20027;-72
2021/12/24 01:49:52;;;;;;;13.48;4.35;;;;;;;;;;5005346;28;20048;-75
2021/12/24 01:52:18;;;;;;;7.72;4.47;;;;;;;;;;5005773;28;20028;-73
2021/12/24 01:54:47;;;;;;;12.82;4.43;;;;;;;;;;5004477;28;20026;-72
2021/12/24 01:57:13;;;;;;;12.80;4.32;;;;;;;;;;5005784;28;20022;-77
2021/12/24 01:59:40;;;;;;;16.30;5.15;;;;;;;;;;5008206;28;20046;-77
2021/12/24 02:02:06;;;;;;;13.32;4.60;;;;;;;;;;5009526;28;20101;-72
2021/12/24 02:04:33;;;;;;;14.73;5.05;;;;;;;;;;5026441;28;20038;-74
2021/12/24 02:06:59;;;;;;;15.38;4.72;;;;;;;;;;5028553;28;20373;-72
2021/12/24 02:09:25;;;;;;;8.82;4.88;;;;;;;;;;5028461;28;20026;-72
2021/12/24 02:11:52;;;;;;;12.27;5.03;;;;;;;;;;5028656;28;20487;-72
2021/12/24 02:14:22;;;;;;;10.18;4.25;;;;;;;;;;5028829;28;20086;-71
2021/12/24 02:30:36;;;;;;;12.65;4.50;;;;;;;;;;5028193;28;19913;-72
2021/12/24 02:33:03;;;;;;;10.48;4.22;;;;;;;;;;5028166;28;20113;-72
2021/12/24 02:35:30;;;;;;;20.25;4.78;;;;;;;;;;5027194;28;20014;-72
2021/12/24 02:37:56;;;;;;;11.15;5.78;;;;;;;;;;5028208;28;20025;-73
2021/12/24 02:40:22;;;;;;;13.73;4.50;;;;;;;;;;5028548;28;20030;-72
2021/12/24 02:42:50;;;;;;;10.98;4.95;;;;;;;;;;5028136;28;20030;-72
2021/12/24 02:45:16;;;;;;;14.30;4.68;;;;;;;;;;5028074;28;20018;-72
2021/12/24 02:48:48;;;;;;;9.18;4.43;;;;;;;;;;5027735;28;20030;-72
2021/12/24 02:55:59;;;;;;;15.27;4.72;;;;;;;;;;5013082;28;20033;-71
2021/12/24 02:58:25;;;;;;;15.20;5.95;;;;;;;;;;5011844;28;20041;-71
2021/12/24 03:00:51;;;;;;;11.07;5.43;;;;;;;;;;5027951;28;20535;-72
2021/12/24 03:03:18;;;;;;;15.38;6.70;;;;;;;;;;5027697;28;20057;-72
2021/12/24 03:05:44;;;;;;;9.75;5.72;;;;;;;;;;5027675;28;20034;-71
2021/12/24 03:08:10;;;;;;;10.68;5.70;;;;;;;;;;5027260;28;20038;-74
2021/12/24 03:10:37;;;;;;;16.15;5.95;;;;;;;;;;5026284;28;20041;-71
2021/12/24 03:13:03;;;;;;;14.43;4.78;;;;;;;;;;5027514;28;20029;-74
2021/12/24 03:15:29;;;;;;;12.70;5.05;;;;;;;;;;5027331;28;20028;-72
2021/12/24 03:17:59;;;;;;;13.68;5.95;;;;;;;;;;5027559;28;20447;-72
2021/12/24 03:20:25;;;;;;;14.52;6.50;;;;;;;;;;5027466;28;20164;-72
2021/12/24 03:25:18;;;;;;;13.10;5.72;;;;;;;;;;5027599;28;20033;-72
2021/12/24 03:27:44;;;;;;;8.82;5.50;;;;;;;;;;5027210;28;20025;-72
2021/12/24 03:30:11;;;;;;;15.07;5.93;;;;;;;;;;5012235;28;20038;-72
2021/12/24 03:32:40;;;;;;;16.77;6.25;;;;;;;;;;5006709;28;20030;-72
2021/12/24 03:35:06;;;;;;;10.82;4.60;;;;;;;;;;5006425;28;20022;-74
2021/12/24 03:37:35;;;;;;;9.95;5.60;;;;;;;;;;5006210;28;20026;-75
2021/12/24 03:40:01;;;;;;;7.38;3.88;;;;;;;;;;5007109;28;20027;-74
2021/12/24 03:42:27;;;;;;;11.68;4.65;;;;;;;;;;5005052;28;20036;-74
2021/12/24 03:45:04;;;;;;;9.50;5.03;;;;;;;;;;5006463;28;20098;-72
2021/12/24 03:47:35;;;;;;;9.15;4.05;;;;;;;;;;5006314;28;20030;-72
2021/12/24 03:50:07;;;;;;;13.15;4.55;;;;;;;;;;5006842;28;20031;-72
2021/12/24 03:54:59;;;;;;;6.18;3.85;;;;;;;;;;5005516;28;20030;-72
2021/12/24 03:57:30;;;;;;;11.98;3.75;;;;;;;;;;5006470;28;20468;-72
2021/12/24 03:59:57;;;;;;;9.20;3.30;;;;;;;;;;5024376;28;20096;-76
2021/12/24 04:02:24;;;;;;;13.90;3.88;;;;;;;;;;5026287;28;20137;-72
2021/12/24 04:04:50;;;;;;;12.05;3.78;;;;;;;;;;5027521;28;20058;-74
2021/12/24 04:07:17;;;;;;;17.30;4.65;;;;;;;;;;5010422;28;20066;-71
2021/12/24 04:09:53;;;;;;;11.13;3.95;;;;;;;;;;5007025;28;20046;-74
2021/12/24 04:12:19;;;;;;;12.00;3.72;;;;;;;;;;5007488;28;20033;-73
2021/12/24 04:14:45;;;;;;;10.25;3.45;;;;;;;;;;5006968;28;20096;-72
2021/12/24 04:17:12;;;;;;;8.52;2.90;;;;;;;;;;5006609;28;20029;-73
2021/12/24 04:25:07;;;;;;;8.68;3.08;;;;;;;;;;5006501;28;20033;-72
2021/12/24 04:27:34;;;;;;;8.90;3.67;;;;;;;;;;5012831;28;20026;-72
2021/12/24 04:30:09;;;;;;;13.20;3.67;;;;;;;;;;5025846;28;20025;-72
2021/12/24 04:32:51;;;;;;;11.60;3.50;;;;;;;;;;5021718;28;20054;-71
2021/12/24 04:51:22;;;;;;;15.93;5.15;;;;;;;;;;5025832;28;20041;-71
2021/12/24 05:04:32;;;;;;;8.48;4.13;;;;;;;;;;5005291;28;20041;-76
2021/12/24 05:07:08;;;;;;;7.28;4.50;;;;;;;;;;5005404;28;20054;-71
2021/12/24 05:09:38;;;;;;;8.02;3.80;;;;;;;;;;5021350;28;20030;-72
2021/12/24 05:12:04;;;;;;;4.97;3.22;;;;;;;;;;4986021;28;20019;-72
2021/12/24 05:14:31;;;;;;;11.50;3.40;;;;;;;;;;4986145;28;20394;-74
2021/12/24 05:22:32;;;;;;;9.93;3.83;;;;;;;;;;4986370;28;20037;-74
2021/12/24 05:24:59;;;;;;;8.63;4.97;;;;;;;;;;4986488;28;20022;-72
2021/12/24 05:27:25;;;;;;;6.25;3.95;;;;;;;;;;4986117;28;20023;-72
2021/12/24 05:29:51;;;;;;;10.75;4.50;;;;;;;;;;4986094;28;20118;-72
2021/12/24 05:32:17;;;;;;;13.55;4.95;;;;;;;;;;4986576;28;20027;-72
2021/12/24 05:34:43;;;;;;;14.00;5.13;;;;;;;;;;4989494;28;20493;-75
2021/12/24 05:37:09;;;;;;;9.10;5.38;;;;;;;;;;4990091;28;20397;-74
2021/12/24 05:39:35;;;;;;;17.60;4.75;;;;;;;;;;5000046;28;20102;-71
2021/12/24 05:42:02;;;;;;;10.73;4.35;;;;;;;;;;5008339;28;20034;-72
2021/12/24 05:44:28;;;;;;;14.77;7.35;;;;;;;;;;5007823;28;20026;-75
2021/12/24 05:46:54;;;;;;;11.70;4.97;;;;;;;;;;5005227;28;20031;-72
2021/12/24 05:49:20;;;;;;;9.07;5.47;;;;;;;;;;5028882;28;20029;-73
2021/12/24 05:51:46;;;;;;;11.18;4.78;;;;;;;;;;5008593;28;20478;-72
2021/12/24 05:54:13;;;;;;;11.60;5.10;;;;;;;;;;5008244;28;20026;-72
2021/12/24 05:56:42;;;;;;;12.50;4.97;;;;;;;;;;5008636;28;20018;-72
2021/12/24 05:59:08;;;;;;;12.13;4.47;;;;;;;;;;5008789;28;20053;-72
2021/12/24 06:01:34;;;;;;;11.50;5.50;;;;;;;;;;5015109;28;20114;-72
2021/12/24 06:04:01;;;;;;;12.25;4.70;;;;;;;;;;5010166;28;20624;-75
2021/12/24 06:06:27;;;;;;;15.68;4.85;;;;;;;;;;5019632;28;20092;-73
2021/12/24 06:08:53;;;;;;;16.35;4.93;;;;;;;;;;5011366;28;20049;-73
2021/12/24 06:11:19;;;;;;;9.85;5.00;;;;;;;;;;5022001;28;20504;-72
2021/12/24 06:13:46;;;;;;;12.93;4.55;;;;;;;;;;5021154;28;20026;-74
2021/12/24 06:16:12;;;;;;;9.98;4.82;;;;;;;;;;5004830;28;20022;-74
2021/12/24 06:18:40;;;;;;;11.93;4.75;;;;;;;;;;5007857;28;20470;-73
2021/12/24 06:21:07;;;;;;;11.70;4.68;;;;;;;;;;5024845;28;20025;-75
2021/12/24 06:23:34;;;;;;;9.30;4.13;;;;;;;;;;5007579;28;20386;-75
2021/12/24 06:26:01;;;;;;;10.05;4.40;;;;;;;;;;5003937;28;20026;-74
2021/12/24 06:28:27;;;;;;;10.02;3.63;;;;;;;;;;5019361;28;20022;-75
2021/12/24 06:30:54;;;;;;;6.18;3.47;;;;;;;;;;5024905;28;20034;-75
2021/12/24 06:33:20;;;;;;;6.90;3.53;;;;;;;;;;5026259;28;20100;-72
2021/12/24 06:35:47;;;;;;;7.25;3.33;;;;;;;;;;5028144;28;20022;-72
2021/12/24 06:38:13;;;;;;;8.38;3.63;;;;;;;;;;5028289;28;20026;-73
2021/12/24 06:40:39;;;;;;;11.02;4.35;;;;;;;;;;5027435;28;20533;-78
2021/12/24 06:43:06;;;;;;;12.48;4.18;;;;;;;;;;5008222;28;20030;-72
2021/12/24 06:45:33;;;;;;;8.55;3.90;;;;;;;;;;5007643;28;20026;-72
2021/12/24 06:48:00;;;;;;;8.75;3.70;;;;;;;;;;5008484;28;20392;-77
2021/12/24 06:50:26;;;;;;;12.57;4.13;;;;;;;;;;5008120;28;20100;-72
2021/12/24 06:52:52;;;;;;;11.55;4.35;;;;;;;;;;5008493;28;20041;-73
2021/12/24 06:55:18;;;;;;;16.50;4.93;;;;;;;;;;5008287;28;20030;-72
2021/12/24 06:57:45;;;;;;;12.57;5.28;;;;;;;;;;5006636;28;20090;-73
2021/12/24 07:00:13;;;;;;;14.43;4.25;;;;;;;;;;5008524;28;20050;-72
2021/12/24 07:02:39;;;;;;;11.05;4.63;;;;;;;;;;5023602;28;20098;-72
2021/12/24 07:05:05;;;;;;;8.20;4.03;;;;;;;;;;5028245;28;20026;-72
2021/12/24 07:07:31;;;;;;;9.40;3.60;;;;;;;;;;5027505;28;20034;-72
2021/12/24 07:09:57;;;;;;;9.65;3.60;;;;;;;;;;5027653;28;20082;-72
2021/12/24 07:12:23;;;;;;;14.57;4.10;;;;;;;;;;5027997;28;20030;-72
2021/12/24 07:14:49;;;;;;;7.88;3.83;;;;;;;;;;5027686;28;20026;-72
2021/12/24 07:17:16;;;;;;;11.35;4.47;;;;;;;;;;5027253;28;20033;-73
2021/12/24 07:19:42;;;;;;;16.00;4.32;;;;;;;;;;5027413;28;20049;-71
2021/12/24 07:22:09;;;;;;;9.80;4.05;;;;;;;;;;5027832;28;20052;-72
2021/12/24 07:24:35;;;;;;;13.00;4.10;;;;;;;;;;5027795;28;20105;-73
2021/12/24 07:27:01;;;;;;;13.45;3.78;;;;;;;;;;5027546;28;20029;-73
2021/12/24 07:29:28;;;;;;;9.57;3.83;;;;;;;;;;5027548;28;20104;-72
2021/12/24 07:31:54;;;;;;;12.13;3.60;;;;;;;;;;5027048;28;20056;-72
2021/12/24 07:34:20;;;;;;;11.70;3.97;;;;;;;;;;5027678;28;20362;-72
2021/12/24 07:36:47;;;;;;;12.40;4.55;;;;;;;;;;5027347;28;20026;-75
2021/12/24 07:39:13;;;;;;;11.10;3.78;;;;;;;;;;5026187;28;20026;-71
2021/12/24 07:41:39;;;;;;;10.73;4.13;;;;;;;;;;5027128;28;20090;-72
2021/12/24 07:44:05;;;;;;;11.70;4.00;;;;;;;;;;5027503;28;20080;-72
2021/12/24 07:46:39;;;;;;;10.05;3.65;;;;;;;;;;5027299;28;20081;-72
2021/12/24 07:49:18;;;;;;;8.07;3.58;;;;;;;;;;5027513;28;20025;-72
2021/12/24 07:54:23;;;;;;;8.82;4.38;;;;;;;;;;5027160;28;20050;-73
2021/12/24 07:56:49;;;;;;;16.77;4.05;;;;;;;;;;5022741;28;20370;-74
2021/12/24 07:59:16;;;;;;;9.95;3.42;;;;;;;;;;5016936;28;20051;-74
2021/12/24 08:01:46;;;;;;;16.92;5.60;;;;;;;;;;5017118;28;20022;-73
2021/12/24 08:04:12;;;;;;;11.48;4.32;;;;;;;;;;5015500;28;20492;-74
2021/12/24 08:06:38;;;;;;;13.75;4.35;;;;;;;;;;5025028;28;20500;-72
2021/12/24 08:09:08;;;;;;;8.48;4.40;;;;;;;;;;5024382;28;20029;-72
2021/12/24 08:11:34;;;;;;;15.48;4.22;;;;;;;;;;5024835;28;20034;-72
2021/12/24 08:14:05;;;;;;;10.73;3.72;;;;;;;;;;5025393;28;20075;-73
2021/12/24 08:16:31;;;;;;;10.82;4.15;;;;;;;;;;5025079;28;20014;-72
2021/12/24 08:18:58;;;;;;;15.25;3.65;;;;;;;;;;5011008;28;20034;-73
2021/12/24 08:21:24;;;;;;;14.38;4.22;;;;;;;;;;5001018;28;20110;-74
2021/12/24 08:23:51;;;;;;;15.77;5.05;;;;;;;;;;5024009;28;20028;-75
2021/12/24 08:26:18;;;;;;;16.55;3.97;;;;;;;;;;5014059;28;20038;-76
2021/12/24 08:28:44;;;;;;;14.88;5.10;;;;;;;;;;5003391;28;20031;-74
2021/12/24 08:31:11;;;;;;;11.35;4.32;;;;;;;;;;5002492;28;20078;-72
2021/12/24 08:33:37;;;;;;;21.42;6.05;;;;;;;;;;4987851;28;20027;-74
2021/12/24 08:36:04;;;;;;;18.33;5.75;;;;;;;;;;5001110;28;20385;-71
2021/12/24 08:38:30;;;;;;;14.13;4.72;;;;;;;;;;5005848;28;20027;-77
2021/12/24 08:40:56;;;;;;;17.27;4.88;;;;;;;;;;5009846;28;20473;-74
2021/12/24 08:43:22;;;;;;;18.00;4.63;;;;;;;;;;5010899;28;20041;-74
2021/12/24 08:45:51;;;;;;;18.98;5.82;;;;;;;;;;4985063;28;20034;-76
2021/12/24 08:48:17;;;;;;;15.07;4.32;;;;;;;;;;4988599;28;20478;-75
2021/12/24 08:50:44;;;;;;;17.38;5.05;;;;;;;;;;4983575;28;20086;-73
2021/12/24 08:53:11;;;;;;;18.77;4.22;;;;;;;;;;5003921;28;20038;-73
2021/12/24 08:55:37;;;;;;;16.92;5.85;;;;;;;;;;5003565;28;20022;-72
2021/12/24 08:58:03;;;;;;;16.20;4.50;;;;;;;;;;5010432;28;20048;-76
2021/12/24 09:00:30;;;;;;;20.98;3.72;;;;;;;;;;5002232;28;20056;-74
2021/12/24 09:02:56;;;;;;;13.65;4.43;;;;;;;;;;5003197;28;20473;-74
2021/12/24 09:05:22;;;;;;;11.82;4.78;;;;;;;;;;5002392;28;20160;-73
2021/12/24 09:07:48;;;;;;;8.15;3.00;;;;;;;;;;5004169;28;20058;-73
2021/12/24 09:10:14;;;;;;;9.82;3.83;;;;;;;;;;5006669;28;20036;-77
2021/12/24 09:12:43;;;;;;;15.13;3.72;;;;;;;;;;5022145;28;20050;-72
2021/12/24 09:15:13;;;;;;;14.40;3.38;;;;;;;;;;5016556;28;20493;-75
2021/12/24 09:17:44;;;;;;;16.70;3.65;;;;;;;;;;5008201;28;20446;-72
2021/12/24 09:20:13;;;;;;;14.75;4.15;;;;;;;;;;5016569;28;20124;-72
2021/12/24 09:22:40;;;;;;;15.02;4.03;;;;;;;;;;5010793;28;20026;-76
2021/12/24 09:25:07;;;;;;;9.73;3.80;;;;;;;;;;5007016;28;20018;-73
2021/12/24 09:27:33;;;;;;;15.82;4.60;;;;;;;;;;5015009;28;20048;-75
2021/12/24 09:29:59;;;;;;;15.98;3.90;;;;;;;;;;5017061;28;20033;-74
2021/12/24 09:32:28;;;;;;;15.63;4.15;;;;;;;;;;5023547;28;20034;-73
2021/12/24 09:34:55;;;;;;;26.38;4.93;;;;;;;;;;5008218;28;20389;-72
2021/12/24 09:37:21;;;;;;;14.60;3.90;;;;;;;;;;5000589;28;20178;-72
2021/12/24 09:39:47;;;;;;;20.17;4.68;;;;;;;;;;5004773;28;20026;-73
2021/12/24 09:42:13;;;;;;;16.35;4.03;;;;;;;;;;5004211;28;20022;-72
2021/12/24 09:44:40;;;;;;;13.60;5.88;;;;;;;;;;5007708;28;20030;-72
2021/12/24 09:47:06;;;;;;;15.00;3.38;;;;;;;;;;4995645;28;20031;-75
2021/12/24 09:49:33;;;;;;;12.52;3.72;;;;;;;;;;5005633;28;20503;-73
2021/12/24 09:52:01;;;;;;;12.82;3.42;;;;;;;;;;5010117;28;20037;-76
2021/12/24 09:54:27;;;;;;;12.07;3.22;;;;;;;;;;5028078;28;20044;-73
2021/12/24 09:56:54;;;;;;;8.18;3.65;;;;;;;;;;5001491;28;20030;-74
2021/12/24 09:59:20;;;;;;;11.07;2.85;;;;;;;;;;5006435;28;20046;-75
2021/12/24 10:02:08;;;;;;;13.98;4.13;;;;;;;;;;5012993;28;20037;-73
2021/12/24 10:04:35;;;;;;;12.75;3.92;;;;;;;;;;5014042;28;20025;-73
2021/12/24 10:07:16;;;;;;;19.52;3.78;;;;;;;;;;4994983;28;20034;-75
2021/12/24 10:09:46;;;;;;;14.25;4.05;;;;;;;;;;5034575;28;20559;-74
2021/12/24 10:12:17;;;;;;;16.88;4.10;;;;;;;;;;5015752;28;20093;-73
2021/12/24 10:15:04;;;;;;;17.67;4.25;;;;;;;;;;5029572;28;20025;-72
2021/12/24 10:17:31;;;;;;;16.67;3.85;;;;;;;;;;5027417;28;20114;-75
2021/12/24 10:20:01;;;;;;;10.18;3.60;;;;;;;;;;5024482;28;20388;-74
2021/12/24 10:22:27;;;;;;;28.60;5.25;;;;;;;;;;5029448;28;20029;-73
2021/12/24 10:25:00;;;;;;;18.88;6.25;;;;;;;;;;5029099;28;20034;-74
2021/12/24 10:27:27;;;;;;;15.90;4.95;;;;;;;;;;5015114;28;20037;-74
2021/12/24 10:29:53;;;;;;;21.30;3.78;;;;;;;;;;5009593;28;20102;-75
2021/12/24 10:32:19;;;;;;;19.90;5.80;;;;;;;;;;5009109;28;20026;-72
2021/12/24 10:34:46;;;;;;;19.50;5.10;;;;;;;;;;5009413;28;20022;-72
2021/12/24 10:37:22;;;;;;;21.00;4.53;;;;;;;;;;5009437;28;20049;-73
2021/12/24 10:39:55;;;;;;;14.93;4.18;;;;;;;;;;5013698;28;20036;-72
2021/12/24 10:42:24;;;;;;;11.93;4.72;;;;;;;;;;5029395;28;20029;-72
2021/12/24 10:44:52;;;;;;;16.85;4.15;;;;;;;;;;5028979;28;20026;-72
2021/12/24 10:47:24;;;;;;;15.43;4.30;;;;;;;;;;5027513;28;20022;-71
2021/12/24 10:55:31;;;;;;;17.63;3.85;;;;;;;;;;5022293;28;20025;-75
2021/12/24 10:57:59;;;;;;;15.43;3.78;;;;;;;;;;5009797;28;20089;-74
2021/12/24 11:00:31;;;;;;;10.85;3.72;;;;;;;;;;5028227;28;20045;-73
2021/12/24 11:02:59;;;;;;;13.23;5.63;;;;;;;;;;5028111;28;20448;-74
2021/12/24 11:05:33;;;;;;;17.65;5.85;;;;;;;;;;5016993;28;20080;-73
2021/12/24 11:08:01;;;;;;;22.00;5.68;;;;;;;;;;5008322;28;20022;-72
2021/12/24 11:10:28;;;;;;;9.80;4.22;;;;;;;;;;5009217;28;20030;-72
2021/12/24 11:12:59;;;;;;;17.48;4.93;;;;;;;;;;5008333;28;20030;-72
2021/12/24 11:15:27;;;;;;;16.42;5.72;;;;;;;;;;5023255;28;20029;-73
2021/12/24 11:17:54;;;;;;;12.32;4.47;;;;;;;;;;5008403;28;20035;-73
2021/12/24 11:20:20;;;;;;;13.60;5.28;;;;;;;;;;5009474;28;20034;-74
2021/12/24 11:22:58;;;;;;;15.00;5.25;;;;;;;;;;5024650;28;20046;-75
2021/12/24 11:25:26;;;;;;;12.93;4.95;;;;;;;;;;5025442;28;20389;-72
2021/12/24 11:27:54;;;;;;;21.27;6.30;;;;;;;;;;5011307;28;20049;-72
2021/12/24 11:30:22;;;;;;;19.70;4.72;;;;;;;;;;5009227;28;20026;-73
2021/12/24 11:32:48;;;;;;;24.65;5.28;;;;;;;;;;5008219;28;20034;-72
2021/12/24 11:35:14;;;;;;;18.23;5.47;;;;;;;;;;5008203;28;20026;-72
2021/12/24 11:37:44;;;;;;;12.20;4.88;;;;;;;;;;5008149;28;20026;-72
2021/12/24 11:40:17;;;;;;;17.23;5.03;;;;;;;;;;5008486;28;20018;-72
2021/12/24 11:42:44;;;;;;;17.60;4.47;;;;;;;;;;5011305;28;20030;-72
2021/12/24 11:45:10;;;;;;;9.23;3.47;;;;;;;;;;5027564;28;20104;-72
2021/12/24 11:47:37;;;;;;;12.75;5.22;;;;;;;;;;5027389;28;20029;-72
2021/12/24 11:50:03;;;;;;;20.02;5.60;;;;;;;;;;5027355;28;20036;-72
2021/12/24 11:52:30;;;;;;;13.57;4.75;;;;;;;;;;5027588;28;20041;-73
2021/12/24 11:54:57;;;;;;;18.65;5.20;;;;;;;;;;5027435;28;20026;-71
2021/12/24 11:57:23;;;;;;;18.05;5.43;;;;;;;;;;5028189;28;20033;-72
2021/12/24 11:59:50;;;;;;;15.85;5.15;;;;;;;;;;5027818;28;20045;-72
2021/12/24 12:02:34;;;;;;;18.73;4.60;;;;;;;;;;5027752;28;20055;-72
2021/12/24 12:05:26;;;;;;;22.58;5.95;;;;;;;;;;5027951;28;20049;-71
2021/12/24 12:08:12;;;;;;;18.02;4.65;;;;;;;;;;5025238;28;20042;-72
2021/12/24 12:10:55;;;;;;;11.13;3.80;;;;;;;;;;5027173;28;20026;-72
2021/12/24 12:13:40;;;;;;;12.68;4.93;;;;;;;;;;5026911;28;20025;-72
2021/12/24 12:16:08;;;;;;;15.13;4.68;;;;;;;;;;5025749;28;20096;-72
2021/12/24 12:18:43;;;;;;;11.98;3.60;;;;;;;;;;5027022;28;20024;-71
2021/12/24 12:21:14;;;;;;;13.23;4.95;;;;;;;;;;5027267;28;20081;-73
2021/12/24 12:26:44;;;;;;;11.90;4.53;;;;;;;;;;5027091;28;20041;-73
2021/12/24 12:29:21;;;;;;;15.57;5.15;;;;;;;;;;5026574;28;20048;-73
2021/12/24 12:31:52;;;;;;;8.82;4.93;;;;;;;;;;5027093;28;20033;-72
2021/12/24 12:34:36;;;;;;;13.05;4.65;;;;;;;;;;5026995;28;20554;-72
2021/12/24 12:37:16;;;;;;;16.52;6.18;;;;;;;;;;5026636;28;20022;-72
2021/12/24 12:39:42;;;;;;;18.73;4.95;;;;;;;;;;5026674;28;20033;-73
2021/12/24 12:42:09;;;;;;;17.92;5.35;;;;;;;;;;5026762;28;20026;-72
2021/12/24 12:44:37;;;;;;;12.55;4.50;;;;;;;;;;5026636;28;20068;-72
2021/12/24 12:47:23;;;;;;;8.48;4.90;;;;;;;;;;5027606;28;20022;-72
2021/12/24 12:49:51;;;;;;;14.80;4.78;;;;;;;;;;5026856;28;20040;-71
2021/12/24 12:52:21;;;;;;;26.73;10.00;;;;;;;;;;5026682;28;20022;-72
2021/12/24 12:54:58;;;;;;;11.43;3.70;;;;;;;;;;5032042;28;20030;-72
2021/12/24 12:57:38;;;;;;;11.43;3.78;;;;;;;;;;5000527;28;20065;-76
2021/12/24 13:00:19;;;;;;;10.45;3.92;;;;;;;;;;4998221;28;20094;-73
2021/12/24 13:02:59;;;;;;;9.45;4.03;;;;;;;;;;5004110;28;20062;-74
2021/12/24 13:05:32;;;;;;;9.23;3.78;;;;;;;;;;4978592;28;20034;-76
2021/12/24 13:08:09;;;;;;;12.25;3.67;;;;;;;;;;4998927;28;20085;-76
2021/12/24 13:10:38;;;;;;;13.45;5.00;;;;;;;;;;4996340;28;20030;-75
2021/12/24 13:13:05;;;;;;;7.50;3.80;;;;;;;;;;4996060;28;20061;-75
2021/12/24 13:15:34;;;;;;;9.77;3.83;;;;;;;;;;4994375;28;20053;-75
2021/12/24 13:18:05;;;;;;;7.47;2.72;;;;;;;;;;5006616;28;20022;-75
2021/12/24 13:20:45;;;;;;;7.65;2.95;;;;;;;;;;5015464;28;20473;-75
2021/12/24 13:23:23;;;;;;;10.40;3.53;;;;;;;;;;5018181;28;20030;-73
2021/12/24 13:25:49;;;;;;;11.45;3.70;;;;;;;;;;5017793;28;20041;-74
2021/12/24 13:28:18;;;;;;;10.10;4.22;;;;;;;;;;5001991;28;20466;-73
2021/12/24 13:30:48;;;;;;;5.72;3.05;;;;;;;;;;5015660;28;20034;-73
2021/12/24 13:33:14;;;;;;;10.07;3.58;;;;;;;;;;5000151;28;20054;-76
2021/12/24 13:35:47;;;;;;;11.75;4.10;;;;;;;;;;5001025;28;20470;-74
2021/12/24 13:38:14;;;;;;;9.02;3.75;;;;;;;;;;5007189;28;20026;-76
2021/12/24 13:40:40;;;;;;;11.52;5.00;;;;;;;;;;5000803;28;20022;-75
2021/12/24 13:43:11;;;;;;;9.02;5.45;;;;;;;;;;5006213;28;20026;-75
2021/12/24 13:45:38;;;;;;;6.80;3.65;;;;;;;;;;5019582;28;20103;-74
2021/12/24 13:48:11;;;;;;;11.13;4.57;;;;;;;;;;5008117;28;20042;-75
2021/12/24 13:56:04;;;;;;;8.65;3.03;;;;;;;;;;5010460;28;20077;-73
2021/12/24 13:58:30;;;;;;;11.95;3.45;;;;;;;;;;5019403;28;20528;-74
2021/12/24 14:00:58;;;;;;;11.55;4.28;;;;;;;;;;5017167;28;20105;-73
2021/12/24 14:03:29;;;;;;;5.30;3.72;;;;;;;;;;5027572;28;20045;-73
2021/12/24 14:06:01;;;;;;;5.80;3.67;;;;;;;;;;5026960;28;20037;-74
2021/12/24 14:08:29;;;;;;;10.40;3.55;;;;;;;;;;5026074;28;20520;-75
2021/12/24 14:11:04;;;;;;;12.25;5.05;;;;;;;;;;5025816;28;20026;-73
2021/12/24 14:13:34;;;;;;;9.23;5.40;;;;;;;;;;5027613;28;20030;-74
2021/12/24 14:18:55;;;;;;;17.42;6.47;;;;;;;;;;5026219;28;20022;-72
2021/12/24 14:24:10;;;;;;;14.98;6.50;;;;;;;;;;5026786;28;20022;-74
2021/12/24 14:26:37;;;;;;;11.88;6.25;;;;;;;;;;5025987;28;20022;-73
2021/12/24 14:29:06;;;;;;;11.90;6.18;;;;;;;;;;5025650;28;20030;-74
2021/12/24 14:31:47;;;;;;;24.73;11.57;;;;;;;;;;5025693;28;20022;-75
2021/12/24 14:34:14;;;;;;;11.65;5.20;;;;;;;;;;5026211;28;20022;-74
2021/12/24 14:36:57;;;;;;;14.52;7.03;;;;;;;;;;5026115;28;20056;-75
2021/12/24 14:39:23;;;;;;;15.05;6.72;;;;;;;;;;5026418;28;20049;-73
2021/12/24 14:42:07;;;;;;;10.35;6.57;;;;;;;;;;5025657;28;20037;-72
2021/12/24 14:44:33;;;;;;;16.52;8.63;;;;;;;;;;5025690;28;20038;-75
2021/12/24 14:46:59;;;;;;;21.20;8.65;;;;;;;;;;5025412;28;20022;-74
2021/12/24 14:49:36;;;;;;;21.63;9.18;;;;;;;;;;5025257;28;20032;-75
2021/12/24 14:52:19;;;;;;;8.23;4.80;;;;;;;;;;5023995;28;20385;-76
2021/12/24 14:55:04;;;;;;;11.35;6.38;;;;;;;;;;5024345;28;20026;-72
2021/12/24 14:57:32;;;;;;;10.60;6.90;;;;;;;;;;5024436;28;20030;-71
2021/12/24 15:00:04;;;;;;;11.18;6.35;;;;;;;;;;5024773;28;20104;-76
2021/12/24 15:02:33;;;;;;;10.02;4.95;;;;;;;;;;5024068;28;20072;-73
2021/12/24 15:04:59;;;;;;;8.38;3.35;;;;;;;;;;5022469;28;20393;-74
2021/12/24 15:07:31;;;;;;;5.05;2.85;;;;;;;;;;5025042;28;20029;-76
2021/12/24 15:10:14;;;;;;;8.35;4.63;;;;;;;;;;5024962;28;20026;-77
2021/12/24 15:12:47;;;;;;;10.23;3.50;;;;;;;;;;5024299;28;20017;-72
2021/12/24 15:15:13;;;;;;;8.20;5.50;;;;;;;;;;5024469;28;20030;-71
2021/12/24 15:17:42;;;;;;;14.73;6.13;;;;;;;;;;5024391;28;20022;-73
2021/12/24 15:20:08;;;;;;;7.70;3.85;;;;;;;;;;5024730;28;20025;-72
2021/12/24 15:22:35;;;;;;;9.02;5.65;;;;;;;;;;5024703;28;20030;-72
2021/12/24 15:25:01;;;;;;;7.13;4.32;;;;;;;;;;5023167;28;20021;-76
2021/12/24 15:27:32;;;;;;;7.60;4.38;;;;;;;;;;5023738;28;20524;-74
2021/12/24 15:29:58;;;;;;;11.57;5.82;;;;;;;;;;5023160;28;20022;-74
2021/12/24 15:32:24;;;;;;;6.55;4.28;;;;;;;;;;5023320;28;20033;-75
2021/12/24 15:34:51;;;;;;;5.85;3.58;;;;;;;;;;5023823;28;20033;-75
2021/12/24 15:37:17;;;;;;;10.70;6.18;;;;;;;;;;5023191;28;20053;-72
2021/12/24 15:39:43;;;;;;;4.93;3.22;;;;;;;;;;5023257;28;20118;-75
2021/12/24 15:42:10;;;;;;;6.32;3.83;;;;;;;;;;5023345;28;20104;-75
2021/12/24 15:44:41;;;;;;;7.13;3.72;;;;;;;;;;5025095;28;20021;-77
2021/12/24 15:47:08;;;;;;;7.85;3.88;;;;;;;;;;5023259;28;20029;-75
2021/12/24 15:49:34;;;;;;;6.82;3.70;;;;;;;;;;5022392;28;20451;-72
2021/12/24 15:52:00;;;;;;;9.18;4.28;;;;;;;;;;5022631;28;20025;-72
2021/12/24 15:54:26;;;;;;;8.77;3.55;;;;;;;;;;5023623;28;20096;-75
2021/12/24 15:56:52;;;;;;;7.93;4.78;;;;;;;;;;5023248;28;20086;-75
2021/12/24 15:59:18;;;;;;;9.35;4.00;;;;;;;;;;5023746;28;20049;-73
2021/12/24 16:01:44;;;;;;;9.80;4.32;;;;;;;;;;5023170;28;20491;-75
2021/12/24 16:04:10;;;;;;;8.38;4.22;;;;;;;;;;5022883;28;20033;-75
2021/12/24 16:06:36;;;;;;;8.50;5.63;;;;;;;;;;5022765;28;20026;-73
2021/12/24 16:09:03;;;;;;;12.13;7.55;;;;;;;;;;5022933;28;20026;-72
2021/12/24 16:11:29;;;;;;;15.30;8.23;;;;;;;;;;5022795;28;20485;-75
2021/12/24 16:13:55;;;;;;;8.48;5.10;;;;;;;;;;5022230;28;20052;-75
2021/12/24 16:16:24;;;;;;;12.35;4.68;;;;;;;;;;5021873;28;20021;-76
2021/12/24 16:18:50;;;;;;;12.57;5.85;;;;;;;;;;5022883;28;20030;-71
2021/12/24 16:21:17;;;;;;;11.52;8.65;;;;;;;;;;5022133;28;20076;-74
2021/12/24 16:23:43;;;;;;;11.68;7.43;;;;;;;;;;5022592;28;20026;-74
2021/12/24 16:26:09;;;;;;;15.02;5.20;;;;;;;;;;5022936;28;20481;-73
2021/12/24 16:28:36;;;;;;;9.38;5.53;;;;;;;;;;5023760;28;20065;-74
2021/12/24 16:31:02;;;;;;;15.38;6.15;;;;;;;;;;5023392;28;20030;-74
2021/12/24 16:33:28;;;;;;;8.50;4.43;;;;;;;;;;5021992;28;20068;-74
2021/12/24 16:35:54;;;;;;;8.23;4.20;;;;;;;;;;5022655;28;20021;-74